createdAt,value
2023-02-21T00:00:43.212Z,0.00
2023-02-21T00:01:43.259Z,0.00
2023-02-21T00:02:43.146Z,0.00
2023-02-21T00:03:43.150Z,0.00
2023-02-21T00:04:43.132Z,0.00
2023-02-21T00:05:43.309Z,0.00
2023-02-21T00:06:43.176Z,0.00
2023-02-21T00:07:43.111Z,0.00
2023-02-21T00:08:43.084Z,0.00
2023-02-21T00:09:43.073Z,0.00
2023-02-21T00:10:43.062Z,0.00
2023-02-21T00:11:43.092Z,0.00
2023-02-21T00:12:43.068Z,0.00
2023-02-21T00:13:43.046Z,0.00
2023-02-21T00:14:43.136Z,0.00
2023-02-21T00:15:43.037Z,0.00
2023-02-21T00:16:43.086Z,0.00
2023-02-21T00:17:42.990Z,0.00
2023-02-21T00:18:42.982Z,0.00
2023-02-21T00:19:42.969Z,0.00
2023-02-21T00:20:42.967Z,0.00
2023-02-21T00:21:43.631Z,0.00
2023-02-21T00:22:43.147Z,0.00
2023-02-21T00:23:42.965Z,0.00
2023-02-21T00:24:42.926Z,0.00
2023-02-21T00:25:43.001Z,0.00
2023-02-21T00:26:42.914Z,0.00
2023-02-21T00:27:42.884Z,0.00
2023-02-21T00:28:42.990Z,0.00
2023-02-21T00:29:42.865Z,0.00
2023-02-21T00:30:42.942Z,0.00
2023-02-21T00:31:42.904Z,0.00
2023-02-21T00:32:42.992Z,0.00
2023-02-21T00:33:42.844Z,0.00
2023-02-21T00:34:42.805Z,0.00
2023-02-21T00:35:42.877Z,0.00
2023-02-21T00:36:42.794Z,0.00
2023-02-21T00:37:42.789Z,0.00
2023-02-21T00:38:43.751Z,0.00
2023-02-21T00:39:42.783Z,0.00
2023-02-21T00:40:42.764Z,0.00
2023-02-21T00:41:42.778Z,0.00
2023-02-21T00:42:42.812Z,0.00
2023-02-21T00:43:42.732Z,0.00
2023-02-21T00:44:42.714Z,0.00
2023-02-21T00:45:42.783Z,0.00
2023-02-21T00:46:42.708Z,0.00
2023-02-21T00:47:42.704Z,0.00
2023-02-21T00:48:42.669Z,0.00
2023-02-21T00:49:42.653Z,0.00
2023-02-21T00:50:42.648Z,0.00
2023-02-21T00:51:42.687Z,0.00
2023-02-21T00:52:42.619Z,0.00
2023-02-21T00:53:42.633Z,0.00
2023-02-21T00:54:42.622Z,0.00
2023-02-21T00:55:42.612Z,0.00
2023-02-21T00:56:42.601Z,0.00
2023-02-21T00:57:43.454Z,0.00
2023-02-21T00:58:42.596Z,0.00
2023-02-21T00:59:42.578Z,0.00
2023-02-21T01:00:42.550Z,0.00
2023-02-21T01:01:42.632Z,0.00
2023-02-21T01:02:42.536Z,0.00
2023-02-21T01:03:42.563Z,0.00
2023-02-21T01:04:42.536Z,0.00
2023-02-21T01:05:42.605Z,0.00
2023-02-21T01:06:42.499Z,0.00
2023-02-21T01:07:42.499Z,0.00
2023-02-21T01:08:42.471Z,0.00
2023-02-21T01:09:42.468Z,0.00
2023-02-21T01:10:42.461Z,0.00
2023-02-21T01:11:42.433Z,0.00
2023-02-21T01:12:42.451Z,0.00
2023-02-21T01:13:42.527Z,0.00
2023-02-21T01:14:42.429Z,0.00
2023-02-21T01:15:42.741Z,0.00
2023-02-21T01:16:42.371Z,0.00
2023-02-21T01:17:43.279Z,0.00
2023-02-21T01:18:42.485Z,0.00
2023-02-21T01:19:43.145Z,0.00
2023-02-21T01:20:42.375Z,0.00
2023-02-21T01:21:42.985Z,0.00
2023-02-21T01:22:42.325Z,0.00
2023-02-21T01:23:42.333Z,0.00
2023-02-21T01:24:42.498Z,0.00
2023-02-21T01:25:42.386Z,0.00
2023-02-21T01:26:42.328Z,0.00
2023-02-21T01:27:42.268Z,0.00
2023-02-21T01:28:42.388Z,0.00
2023-02-21T01:29:42.294Z,0.00
2023-02-21T01:30:42.406Z,0.00
2023-02-21T01:31:42.286Z,0.00
2023-02-21T01:32:42.234Z,0.00
2023-02-21T01:33:42.421Z,0.00
2023-02-21T01:34:42.196Z,0.00
2023-02-21T01:35:43.142Z,0.00
2023-02-21T01:36:42.219Z,0.00
2023-02-21T01:37:42.174Z,0.00
2023-02-21T01:38:42.194Z,0.00
2023-02-21T01:39:42.150Z,0.00
2023-02-21T01:40:42.131Z,0.00
2023-02-21T01:41:42.155Z,0.00
2023-02-21T01:42:42.137Z,0.00
2023-02-21T01:43:42.129Z,0.00
2023-02-21T01:44:42.102Z,0.00
2023-02-21T01:45:42.211Z,0.00
2023-02-21T01:46:42.093Z,0.00
2023-02-21T01:47:42.073Z,0.00
2023-02-21T01:48:42.055Z,0.00
2023-02-21T01:49:42.179Z,0.00
2023-02-21T01:50:42.056Z,0.00
2023-02-21T01:51:42.055Z,0.00
2023-02-21T01:52:42.036Z,0.00
2023-02-21T01:53:42.888Z,0.00
2023-02-21T01:54:41.996Z,0.00
2023-02-21T01:55:41.989Z,0.00
2023-02-21T01:56:42.631Z,0.00
2023-02-21T01:57:42.014Z,0.00
2023-02-21T01:58:41.959Z,0.00
2023-02-21T01:59:41.948Z,0.00
2023-02-21T02:00:41.930Z,0.00
2023-02-21T02:01:42.021Z,0.00
2023-02-21T02:02:41.918Z,0.00
2023-02-21T02:03:42.080Z,0.00
2023-02-21T02:04:41.922Z,0.00
2023-02-21T02:05:41.879Z,0.00
2023-02-21T02:06:41.907Z,0.00
2023-02-21T02:07:42.208Z,0.00
2023-02-21T02:08:42.658Z,0.00
2023-02-21T02:09:41.906Z,0.00
2023-02-21T02:10:41.887Z,0.00
2023-02-21T02:11:42.577Z,0.00
2023-02-21T02:12:41.802Z,0.00
2023-02-21T02:13:41.811Z,0.00
2023-02-21T02:14:41.838Z,0.00
2023-02-21T02:15:42.686Z,0.00
2023-02-21T02:16:41.825Z,0.00
2023-02-21T02:17:41.761Z,0.00
2023-02-21T02:18:41.737Z,0.00
2023-02-21T02:19:41.792Z,0.00
2023-02-21T02:20:41.746Z,0.00
2023-02-21T02:21:41.753Z,0.00
2023-02-21T02:22:41.717Z,0.00
2023-02-21T02:23:41.696Z,0.00
2023-02-21T02:24:42.601Z,0.00
2023-02-21T02:25:42.679Z,0.00
2023-02-21T02:26:41.683Z,0.00
2023-02-21T02:27:41.827Z,0.00
2023-02-21T02:28:41.649Z,0.00
2023-02-21T02:29:41.633Z,0.00
2023-02-21T02:30:41.660Z,0.00
2023-02-21T02:31:41.793Z,0.00
2023-02-21T02:32:41.818Z,0.00
2023-02-21T02:33:41.737Z,0.00
2023-02-21T02:34:41.583Z,0.00
2023-02-21T02:35:41.583Z,0.00
2023-02-21T02:36:41.637Z,0.00
2023-02-21T02:37:41.582Z,0.00
2023-02-21T02:38:41.540Z,0.00
2023-02-21T02:39:41.525Z,0.00
2023-02-21T02:40:41.538Z,0.00
2023-02-21T02:41:41.925Z,0.00
2023-02-21T02:42:41.574Z,0.00
2023-02-21T02:43:41.495Z,0.00
2023-02-21T02:44:42.074Z,0.00
2023-02-21T02:45:41.511Z,0.00
2023-02-21T02:46:41.529Z,0.00
2023-02-21T02:47:41.524Z,0.00
2023-02-21T02:48:41.434Z,0.00
2023-02-21T02:49:41.451Z,0.00
2023-02-21T02:50:41.442Z,0.00
2023-02-21T02:51:41.449Z,0.00
2023-02-21T02:52:41.402Z,0.00
2023-02-21T02:53:41.393Z,0.00
2023-02-21T02:54:41.370Z,0.00
2023-02-21T02:55:41.362Z,0.00
2023-02-21T02:56:41.369Z,0.00
2023-02-21T02:57:42.208Z,0.00
2023-02-21T02:58:41.335Z,0.00
2023-02-21T02:59:41.318Z,0.00
2023-02-21T03:00:41.302Z,0.00
2023-02-21T03:01:43.152Z,0.00
2023-02-21T03:02:41.296Z,0.00
2023-02-21T03:03:41.406Z,0.00
2023-02-21T03:04:41.345Z,0.00
2023-02-21T03:05:41.445Z,0.00
2023-02-21T03:06:41.271Z,0.00
2023-02-21T03:07:41.264Z,0.00
2023-02-21T03:08:41.226Z,0.00
2023-02-21T03:09:41.217Z,0.00
2023-02-21T03:10:41.214Z,0.00
2023-02-21T03:11:41.201Z,0.00
2023-02-21T03:12:41.980Z,0.00
2023-02-21T03:13:41.184Z,0.00
2023-02-21T03:14:41.183Z,0.00
2023-02-21T03:15:41.192Z,0.00
2023-02-21T03:16:41.161Z,0.00
2023-02-21T03:17:41.183Z,0.00
2023-02-21T03:18:41.137Z,0.00
2023-02-21T03:19:41.128Z,0.00
2023-02-21T03:20:41.191Z,0.00
2023-02-21T03:21:41.133Z,0.00
2023-02-21T03:22:41.246Z,0.00
2023-02-21T03:23:41.075Z,0.00
2023-02-21T03:24:41.114Z,0.00
2023-02-21T03:25:41.076Z,0.00
2023-02-21T03:26:41.047Z,0.00
2023-02-21T03:27:41.122Z,0.00
2023-02-21T03:28:41.072Z,0.00
2023-02-21T03:29:41.024Z,0.00
2023-02-21T03:30:41.011Z,0.00
2023-02-21T03:31:41.074Z,0.00
2023-02-21T03:32:41.990Z,0.00
2023-02-21T03:33:41.036Z,0.00
2023-02-21T03:34:41.000Z,0.00
2023-02-21T03:35:40.941Z,0.00
2023-02-21T03:36:40.965Z,0.00
2023-02-21T03:37:40.959Z,0.00
2023-02-21T03:38:40.982Z,0.00
2023-02-21T03:39:40.907Z,0.00
2023-02-21T03:40:40.918Z,0.00
2023-02-21T03:41:40.901Z,0.00
2023-02-21T03:42:40.886Z,0.00
2023-02-21T03:43:40.868Z,0.00
2023-02-21T03:44:40.881Z,0.00
2023-02-21T03:45:41.051Z,0.00
2023-02-21T03:46:42.557Z,0.00
2023-02-21T03:47:40.876Z,0.00
2023-02-21T03:48:40.813Z,0.00
2023-02-21T03:49:40.845Z,0.00
2023-02-21T03:50:40.802Z,0.00
2023-02-21T03:51:40.816Z,0.00
2023-02-21T03:52:40.799Z,0.00
2023-02-21T03:53:40.777Z,0.00
2023-02-21T03:54:40.779Z,0.00
2023-02-21T03:55:40.737Z,0.00
2023-02-21T03:56:42.438Z,0.00
2023-02-21T03:57:40.732Z,0.00
2023-02-21T03:58:40.721Z,0.00
2023-02-21T03:59:40.780Z,0.00
2023-02-21T04:00:40.840Z,0.00
2023-02-21T04:01:40.724Z,0.00
2023-02-21T04:02:40.716Z,0.00
2023-02-21T04:03:40.647Z,0.00
2023-02-21T04:04:40.658Z,0.00
2023-02-21T04:05:40.637Z,0.00
2023-02-21T04:06:40.666Z,0.00
2023-02-21T04:07:41.154Z,0.00
2023-02-21T04:08:40.621Z,0.00
2023-02-21T04:09:40.656Z,0.00
2023-02-21T04:10:50.468Z,0.00
2023-02-21T04:11:40.575Z,0.00
2023-02-21T04:12:40.591Z,0.00
2023-02-21T04:13:40.555Z,0.00
2023-02-21T04:14:40.570Z,0.00
2023-02-21T04:15:40.662Z,0.00
2023-02-21T04:16:40.532Z,0.00
2023-02-21T04:17:40.540Z,0.00
2023-02-21T04:18:40.563Z,0.00
2023-02-21T04:19:40.584Z,0.00
2023-02-21T04:20:40.484Z,0.00
2023-02-21T04:21:41.125Z,0.00
2023-02-21T04:22:40.477Z,0.00
2023-02-21T04:23:40.465Z,0.00
2023-02-21T04:24:40.453Z,0.00
2023-02-21T04:25:40.489Z,0.00
2023-02-21T04:26:41.224Z,0.00
2023-02-21T04:27:42.246Z,0.00
2023-02-21T04:28:40.402Z,0.00
2023-02-21T04:29:40.434Z,0.00
2023-02-21T04:30:40.485Z,0.00
2023-02-21T04:31:41.121Z,0.00
2023-02-21T04:32:40.440Z,0.00
2023-02-21T04:33:40.350Z,0.00
2023-02-21T04:34:40.343Z,0.00
2023-02-21T04:35:40.374Z,0.00
2023-02-21T04:36:40.338Z,0.00
2023-02-21T04:37:40.405Z,0.00
2023-02-21T04:38:40.326Z,0.00
2023-02-21T04:39:40.284Z,0.00
2023-02-21T04:40:40.285Z,0.00
2023-02-21T04:41:40.283Z,0.00
2023-02-21T04:42:40.284Z,0.00
2023-02-21T04:43:40.278Z,0.00
2023-02-21T04:44:42.856Z,0.00
2023-02-21T04:45:40.269Z,0.00
2023-02-21T04:46:40.229Z,0.00
2023-02-21T04:47:40.247Z,0.00
2023-02-21T04:48:40.212Z,0.00
2023-02-21T04:49:40.194Z,0.00
2023-02-21T04:50:40.222Z,0.00
2023-02-21T04:51:40.220Z,0.00
2023-02-21T04:52:40.246Z,0.00
2023-02-21T04:53:40.178Z,0.00
2023-02-21T04:54:41.138Z,0.00
2023-02-21T04:55:40.206Z,0.00
2023-02-21T04:56:40.218Z,0.00
2023-02-21T04:57:40.122Z,0.00
2023-02-21T04:58:45.178Z,0.00
2023-02-21T04:59:40.095Z,0.00
2023-02-21T05:00:40.090Z,0.00
2023-02-21T05:01:40.079Z,0.00
2023-02-21T05:02:40.067Z,0.00
2023-02-21T05:03:40.063Z,0.00
2023-02-21T05:04:40.038Z,0.00
2023-02-21T05:05:40.677Z,0.00
2023-02-21T05:06:40.061Z,0.00
2023-02-21T05:07:40.042Z,0.00
2023-02-21T05:08:40.009Z,0.00
2023-02-21T05:09:39.978Z,0.00
2023-02-21T05:10:45.454Z,0.00
2023-02-21T05:11:40.030Z,0.00
2023-02-21T05:12:40.047Z,0.00
2023-02-21T05:14:34.033Z,0.00
2023-02-21T05:15:35.735Z,0.00
2023-02-21T05:16:35.690Z,0.00
2023-02-21T05:17:35.025Z,0.00
2023-02-21T05:18:35.016Z,0.00
2023-02-21T05:19:34.969Z,0.00
2023-02-21T05:20:34.988Z,0.00
2023-02-21T05:21:34.966Z,0.00
2023-02-21T05:22:34.958Z,0.00
2023-02-21T05:23:34.943Z,0.00
2023-02-21T05:24:34.925Z,0.00
2023-02-21T05:25:35.703Z,0.00
2023-02-21T05:26:34.917Z,0.00
2023-02-21T05:27:34.973Z,0.00
2023-02-21T05:28:34.884Z,0.00
2023-02-21T05:29:34.869Z,0.00
2023-02-21T05:30:35.088Z,0.00
2023-02-21T05:31:34.934Z,0.00
2023-02-21T05:32:34.865Z,0.00
2023-02-21T05:33:34.853Z,0.00
2023-02-21T05:34:35.698Z,0.00
2023-02-21T05:35:34.810Z,0.00
2023-02-21T05:36:34.837Z,0.00
2023-02-21T05:37:34.799Z,0.00
2023-02-21T05:38:34.797Z,0.00
2023-02-21T05:39:34.890Z,0.00
2023-02-21T05:40:34.811Z,0.00
2023-02-21T05:41:34.746Z,0.00
2023-02-21T05:42:34.757Z,0.00
2023-02-21T05:43:34.736Z,0.00
2023-02-21T05:44:34.746Z,0.00
2023-02-21T05:45:34.728Z,0.00
2023-02-21T05:46:34.655Z,0.00
2023-02-21T05:47:34.690Z,0.00
2023-02-21T05:48:34.644Z,0.00
2023-02-21T05:49:34.662Z,0.00
2023-02-21T05:50:35.661Z,0.00
2023-02-21T05:51:34.628Z,0.00
2023-02-21T05:52:34.617Z,0.00
2023-02-21T05:53:34.582Z,0.00
2023-02-21T05:54:34.558Z,0.00
2023-02-21T05:55:34.569Z,0.00
2023-02-21T05:56:34.548Z,0.00
2023-02-21T05:57:34.844Z,0.00
2023-02-21T05:58:34.587Z,0.00
2023-02-21T05:59:34.518Z,0.00
2023-02-21T06:00:34.493Z,0.00
2023-02-21T06:01:34.486Z,0.00
2023-02-21T06:02:34.533Z,0.00
2023-02-21T06:03:34.529Z,0.00
2023-02-21T06:04:34.501Z,0.00
2023-02-21T06:05:34.445Z,0.00
2023-02-21T06:06:34.434Z,0.00
2023-02-21T06:07:34.429Z,0.00
2023-02-21T06:08:34.422Z,0.00
2023-02-21T06:09:34.397Z,0.00
2023-02-21T06:10:34.412Z,0.00
2023-02-21T06:11:34.479Z,0.00
2023-02-21T06:12:34.382Z,0.00
2023-02-21T06:13:34.360Z,0.00
2023-02-21T06:14:34.359Z,0.00
2023-02-21T06:15:34.360Z,0.00
2023-02-21T06:16:34.363Z,0.00
2023-02-21T06:17:34.346Z,0.00
2023-02-21T06:18:34.316Z,0.00
2023-02-21T06:19:34.300Z,0.00
2023-02-21T06:20:34.293Z,0.00
2023-02-21T06:21:34.286Z,0.00
2023-02-21T06:22:34.287Z,0.00
2023-02-21T06:23:34.280Z,0.00
2023-02-21T06:24:34.526Z,0.00
2023-02-21T06:25:34.231Z,0.00
2023-02-21T06:26:34.248Z,0.00
2023-02-21T06:27:34.221Z,0.00
2023-02-21T06:28:34.243Z,0.00
2023-02-21T06:29:34.200Z,0.00
2023-02-21T06:30:34.201Z,0.00
2023-02-21T06:31:34.237Z,0.00
2023-02-21T06:32:34.187Z,0.00
2023-02-21T06:33:34.170Z,0.00
2023-02-21T06:34:34.158Z,0.00
2023-02-21T06:35:35.954Z,0.00
2023-02-21T06:36:34.127Z,0.00
2023-02-21T06:37:34.139Z,0.00
2023-02-21T06:38:34.144Z,0.00
2023-02-21T06:39:34.167Z,0.00
2023-02-21T06:40:34.145Z,5.62
2023-02-21T06:41:34.082Z,5.62
2023-02-21T06:42:34.063Z,5.62
2023-02-21T06:43:34.068Z,5.62
2023-02-21T06:44:34.069Z,5.62
2023-02-21T06:45:34.061Z,5.62
2023-02-21T06:46:34.088Z,5.62
2023-02-21T06:47:34.024Z,5.62
2023-02-21T06:48:34.110Z,5.62
2023-02-21T06:49:33.993Z,5.62
2023-02-21T06:50:34.012Z,5.62
2023-02-21T06:51:33.976Z,5.62
2023-02-21T06:52:34.000Z,5.62
2023-02-21T06:53:33.963Z,5.62
2023-02-21T06:54:33.944Z,5.62
2023-02-21T06:55:34.365Z,5.62
2023-02-21T06:56:33.940Z,5.62
2023-02-21T06:57:33.944Z,11.25
2023-02-21T06:58:33.914Z,5.62
2023-02-21T06:59:33.903Z,5.62
2023-02-21T07:00:33.904Z,5.62
2023-02-21T07:01:33.915Z,5.62
2023-02-21T07:02:33.879Z,5.62
2023-02-21T07:03:33.881Z,5.62
2023-02-21T07:04:33.895Z,5.62
2023-02-21T07:05:33.845Z,5.62
2023-02-21T07:06:33.856Z,5.62
2023-02-21T07:07:33.823Z,5.62
2023-02-21T07:08:33.824Z,5.62
2023-02-21T07:09:33.796Z,5.62
2023-02-21T07:10:33.793Z,5.62
2023-02-21T07:11:33.798Z,5.62
2023-02-21T07:12:33.774Z,11.25
2023-02-21T07:13:33.808Z,11.25
2023-02-21T07:14:33.742Z,5.62
2023-02-21T07:15:33.781Z,5.62
2023-02-21T07:16:33.733Z,5.62
2023-02-21T07:17:33.744Z,5.62
2023-02-21T07:18:33.722Z,5.62
2023-02-21T07:19:33.679Z,11.25
2023-02-21T07:20:33.694Z,11.25
2023-02-21T07:21:33.684Z,16.88
2023-02-21T07:22:33.691Z,16.88
2023-02-21T07:23:33.665Z,11.25
2023-02-21T07:24:36.336Z,16.88
2023-02-21T07:25:33.780Z,16.88
2023-02-21T07:26:33.609Z,11.25
2023-02-21T07:27:33.600Z,5.62
2023-02-21T07:28:33.654Z,5.62
2023-02-21T07:29:33.578Z,11.25
2023-02-21T07:30:33.602Z,11.25
2023-02-21T07:31:33.687Z,5.62
2023-02-21T07:32:33.557Z,5.62
2023-02-21T07:33:33.583Z,11.25
2023-02-21T07:34:33.535Z,11.25
2023-02-21T07:35:33.513Z,16.88
2023-02-21T07:36:33.520Z,16.88
2023-02-21T07:37:33.569Z,16.88
2023-02-21T07:38:33.504Z,22.50
2023-02-21T07:39:33.514Z,33.75
2023-02-21T07:40:33.522Z,33.75
2023-02-21T07:41:33.459Z,33.75
2023-02-21T07:42:33.451Z,33.75
2023-02-21T07:43:33.464Z,33.75
2023-02-21T07:44:33.441Z,33.75
2023-02-21T07:45:33.418Z,39.38
2023-02-21T07:46:33.558Z,39.38
2023-02-21T07:47:33.409Z,45.00
2023-02-21T07:48:33.449Z,45.00
2023-02-21T07:49:33.455Z,45.00
2023-02-21T07:50:33.461Z,39.38
2023-02-21T07:51:33.601Z,33.75
2023-02-21T07:52:33.342Z,33.75
2023-02-21T07:53:33.424Z,33.75
2023-02-21T07:54:33.356Z,33.75
2023-02-21T07:55:33.341Z,33.75
2023-02-21T07:56:33.298Z,33.75
2023-02-21T07:57:33.322Z,33.75
2023-02-21T07:58:33.339Z,33.75
2023-02-21T07:59:33.281Z,33.75
2023-02-21T08:00:33.271Z,28.12
2023-02-21T08:01:33.375Z,28.12
2023-02-21T08:02:33.267Z,22.50
2023-02-21T08:03:33.310Z,22.50
2023-02-21T08:04:33.250Z,22.50
2023-02-21T08:05:33.212Z,28.12
2023-02-21T08:06:33.205Z,22.50
2023-02-21T08:07:33.221Z,22.50
2023-02-21T08:08:33.293Z,22.50
2023-02-21T08:09:33.186Z,22.50
2023-02-21T08:10:33.176Z,28.12
2023-02-21T08:11:33.164Z,33.75
2023-02-21T08:12:33.145Z,33.75
2023-02-21T08:13:33.155Z,39.38
2023-02-21T08:14:33.127Z,50.62
2023-02-21T08:15:33.165Z,67.50
2023-02-21T08:16:34.826Z,84.38
2023-02-21T08:17:33.083Z,78.75
2023-02-21T08:18:33.166Z,84.38
2023-02-21T08:19:33.086Z,84.38
2023-02-21T08:20:33.053Z,84.38
2023-02-21T08:21:33.048Z,90.00
2023-02-21T08:22:33.084Z,90.00
2023-02-21T08:23:33.052Z,84.38
2023-02-21T08:24:33.019Z,84.38
2023-02-21T08:25:33.060Z,90.00
2023-02-21T08:26:33.009Z,90.00
2023-02-21T08:27:33.008Z,101.25
2023-02-21T08:28:32.976Z,106.88
2023-02-21T08:29:32.985Z,106.88
2023-02-21T08:30:32.983Z,106.88
2023-02-21T08:31:32.977Z,101.25
2023-02-21T08:32:32.921Z,95.62
2023-02-21T08:33:32.944Z,90.00
2023-02-21T08:34:32.920Z,90.00
2023-02-21T08:35:32.927Z,84.38
2023-02-21T08:36:32.876Z,84.38
2023-02-21T08:37:32.902Z,78.75
2023-02-21T08:38:32.908Z,84.38
2023-02-21T08:39:32.992Z,90.00
2023-02-21T08:40:32.866Z,101.25
2023-02-21T08:41:32.849Z,123.75
2023-02-21T08:42:32.824Z,140.62
2023-02-21T08:43:33.148Z,157.50
2023-02-21T08:44:32.802Z,174.38
2023-02-21T08:45:32.797Z,185.62
2023-02-21T08:46:32.824Z,219.38
2023-02-21T08:47:32.794Z,230.62
2023-02-21T08:48:32.779Z,208.12
2023-02-21T08:49:32.763Z,174.38
2023-02-21T08:50:32.738Z,191.25
2023-02-21T08:51:32.737Z,191.25
2023-02-21T08:52:33.351Z,180.00
2023-02-21T08:53:32.751Z,168.75
2023-02-21T08:54:32.721Z,241.88
2023-02-21T08:55:32.683Z,163.12
2023-02-21T08:56:32.769Z,191.25
2023-02-21T08:57:32.682Z,140.62
2023-02-21T08:58:32.678Z,135.00
2023-02-21T08:59:32.696Z,129.38
2023-02-21T09:00:32.647Z,129.38
2023-02-21T09:01:32.740Z,140.62
2023-02-21T09:02:32.612Z,140.62
2023-02-21T09:03:32.612Z,140.62
2023-02-21T09:04:32.639Z,129.38
2023-02-21T09:05:32.609Z,135.00
2023-02-21T09:06:32.582Z,123.75
2023-02-21T09:07:32.568Z,118.12
2023-02-21T09:08:32.554Z,112.50
2023-02-21T09:09:32.550Z,106.88
2023-02-21T09:10:32.573Z,106.88
2023-02-21T09:11:32.543Z,101.25
2023-02-21T09:12:32.523Z,101.25
2023-02-21T09:13:32.530Z,95.62
2023-02-21T09:14:32.500Z,95.62
2023-02-21T09:15:32.495Z,90.00
2023-02-21T09:16:32.544Z,90.00
2023-02-21T09:17:32.502Z,95.62
2023-02-21T09:18:32.490Z,95.62
2023-02-21T09:19:33.236Z,101.25
2023-02-21T09:20:32.426Z,101.25
2023-02-21T09:21:32.445Z,90.00
2023-02-21T09:22:32.430Z,101.25
2023-02-21T09:23:32.416Z,101.25
2023-02-21T09:24:32.398Z,106.88
2023-02-21T09:25:32.411Z,106.88
2023-02-21T09:26:32.367Z,106.88
2023-02-21T09:27:32.358Z,112.50
2023-02-21T09:28:32.394Z,112.50
2023-02-21T09:29:45.016Z,118.12
2023-02-21T09:30:32.387Z,118.12
2023-02-21T09:31:32.324Z,118.12
2023-02-21T09:32:32.389Z,118.12
2023-02-21T09:33:32.390Z,123.75
2023-02-21T09:34:32.312Z,123.75
2023-02-21T09:35:32.293Z,129.38
2023-02-21T09:36:32.305Z,135.00
2023-02-21T09:37:32.260Z,135.00
2023-02-21T09:38:32.328Z,135.00
2023-02-21T09:39:32.253Z,135.00
2023-02-21T09:40:32.287Z,135.00
2023-02-21T09:41:32.764Z,135.00
2023-02-21T09:42:32.213Z,135.00
2023-02-21T09:43:32.250Z,135.00
2023-02-21T09:44:32.192Z,135.00
2023-02-21T09:45:33.306Z,129.38
2023-02-21T09:46:32.174Z,135.00
2023-02-21T09:47:32.186Z,140.62
2023-02-21T09:48:32.214Z,140.62
2023-02-21T09:49:32.162Z,140.62
2023-02-21T09:50:32.127Z,140.62
2023-02-21T09:51:32.113Z,146.25
2023-02-21T09:52:32.131Z,146.25
2023-02-21T09:53:32.134Z,146.25
2023-02-21T09:54:32.093Z,140.62
2023-02-21T09:55:32.069Z,146.25
2023-02-21T09:56:33.264Z,146.25
2023-02-21T09:57:32.064Z,146.25
2023-02-21T09:58:32.042Z,140.62
2023-02-21T09:59:32.052Z,135.00
2023-02-21T10:00:32.029Z,135.00
2023-02-21T10:01:32.096Z,129.38
2023-02-21T10:02:31.986Z,129.38
2023-02-21T10:03:32.010Z,129.38
2023-02-21T10:04:32.038Z,129.38
2023-02-21T10:05:31.983Z,129.38
2023-02-21T10:06:31.958Z,129.38
2023-02-21T10:07:31.991Z,135.00
2023-02-21T10:08:31.927Z,135.00
2023-02-21T10:09:31.941Z,135.00
2023-02-21T10:10:31.944Z,140.62
2023-02-21T10:11:31.915Z,146.25
2023-02-21T10:12:31.903Z,151.88
2023-02-21T10:13:31.877Z,157.50
2023-02-21T10:14:31.932Z,157.50
2023-02-21T10:15:31.874Z,168.75
2023-02-21T10:16:31.925Z,157.50
2023-02-21T10:17:31.847Z,157.50
2023-02-21T10:18:31.865Z,163.12
2023-02-21T10:19:31.839Z,163.12
2023-02-21T10:20:31.810Z,163.12
2023-02-21T10:21:31.808Z,163.12
2023-02-21T10:22:31.798Z,163.12
2023-02-21T10:23:32.726Z,163.12
2023-02-21T10:24:31.824Z,168.75
2023-02-21T10:25:31.814Z,163.12
2023-02-21T10:26:31.771Z,157.50
2023-02-21T10:27:31.740Z,151.88
2023-02-21T10:28:31.733Z,135.00
2023-02-21T10:29:31.791Z,140.62
2023-02-21T10:30:31.843Z,146.25
2023-02-21T10:31:31.805Z,146.25
2023-02-21T10:32:31.692Z,118.12
2023-02-21T10:33:31.668Z,112.50
2023-02-21T10:34:31.766Z,129.38
2023-02-21T10:35:31.653Z,123.75
2023-02-21T10:36:31.641Z,118.12
2023-02-21T10:37:31.681Z,123.75
2023-02-21T10:38:31.616Z,140.62
2023-02-21T10:39:31.622Z,140.62
2023-02-21T10:40:31.612Z,140.62
2023-02-21T10:41:31.620Z,129.38
2023-02-21T10:42:31.591Z,129.38
2023-02-21T10:43:31.592Z,146.25
2023-02-21T10:44:31.602Z,151.88
2023-02-21T10:45:31.613Z,151.88
2023-02-21T10:46:31.549Z,146.25
2023-02-21T10:47:31.541Z,146.25
2023-02-21T10:48:31.517Z,135.00
2023-02-21T10:49:31.534Z,146.25
2023-02-21T10:50:31.522Z,146.25
2023-02-21T10:51:31.509Z,140.62
2023-02-21T10:52:31.494Z,135.00
2023-02-21T10:53:31.487Z,140.62
2023-02-21T10:54:34.108Z,135.00
2023-02-21T10:55:33.456Z,112.50
2023-02-21T10:56:31.446Z,118.12
2023-02-21T10:57:31.441Z,129.38
2023-02-21T10:58:31.421Z,140.62
2023-02-21T10:59:31.533Z,140.62
2023-02-21T11:00:31.406Z,135.00
2023-02-21T11:01:31.462Z,123.75
2023-02-21T11:02:31.402Z,112.50
2023-02-21T11:03:31.371Z,106.88
2023-02-21T11:04:31.385Z,106.88
2023-02-21T11:05:31.342Z,106.88
2023-02-21T11:06:31.338Z,106.88
2023-02-21T11:07:31.331Z,140.62
2023-02-21T11:08:31.302Z,163.12
2023-02-21T11:09:31.352Z,174.38
2023-02-21T11:10:31.338Z,180.00
2023-02-21T11:11:31.320Z,168.75
2023-02-21T11:12:31.261Z,174.38
2023-02-21T11:13:31.251Z,163.12
2023-02-21T11:14:37.288Z,174.38
2023-02-21T11:15:31.265Z,163.12
2023-02-21T11:16:31.225Z,163.12
2023-02-21T11:17:31.959Z,157.50
2023-02-21T11:18:31.216Z,157.50
2023-02-21T11:19:31.212Z,163.12
2023-02-21T11:20:31.177Z,157.50
2023-02-21T11:21:31.197Z,151.88
2023-02-21T11:22:32.894Z,151.88
2023-02-21T11:23:31.196Z,157.50
2023-02-21T11:24:31.145Z,151.88
2023-02-21T11:25:31.130Z,163.12
2023-02-21T11:26:31.109Z,151.88
2023-02-21T11:27:31.130Z,151.88
2023-02-21T11:28:31.096Z,151.88
2023-02-21T11:29:31.109Z,168.75
2023-02-21T11:30:31.104Z,163.12
2023-02-21T11:31:31.264Z,174.38
2023-02-21T11:32:31.093Z,168.75
2023-02-21T11:33:31.064Z,163.12
2023-02-21T11:34:31.064Z,163.12
2023-02-21T11:35:31.034Z,157.50
2023-02-21T11:36:31.023Z,163.12
2023-02-21T11:37:31.005Z,168.75
2023-02-21T11:38:30.997Z,174.38
2023-02-21T11:39:31.022Z,168.75
2023-02-21T11:40:30.978Z,163.12
2023-02-21T11:41:30.988Z,140.62
2023-02-21T11:42:30.990Z,163.12
2023-02-21T11:43:30.968Z,140.62
2023-02-21T11:44:30.950Z,140.62
2023-02-21T11:45:30.956Z,151.88
2023-02-21T11:46:30.923Z,146.25
2023-02-21T11:47:30.910Z,118.12
2023-02-21T11:48:30.911Z,140.62
2023-02-21T11:49:30.914Z,157.50
2023-02-21T11:50:30.928Z,174.38
2023-02-21T11:51:30.896Z,123.75
2023-02-21T11:52:30.889Z,95.62
2023-02-21T11:53:30.908Z,101.25
2023-02-21T11:54:30.879Z,129.38
2023-02-21T11:55:30.820Z,140.62
2023-02-21T11:56:30.809Z,146.25
2023-02-21T11:57:30.800Z,101.25
2023-02-21T11:58:30.809Z,106.88
2023-02-21T11:59:30.909Z,90.00
2023-02-21T12:00:30.812Z,84.38
2023-02-21T12:01:30.759Z,78.75
2023-02-21T12:02:30.780Z,90.00
2023-02-21T12:03:30.735Z,112.50
2023-02-21T12:04:30.743Z,135.00
2023-02-21T12:05:30.836Z,95.62
2023-02-21T12:06:30.714Z,78.75
2023-02-21T12:07:30.698Z,73.12
2023-02-21T12:08:30.769Z,95.62
2023-02-21T12:09:30.685Z,90.00
2023-02-21T12:10:30.664Z,106.88
2023-02-21T12:11:30.642Z,112.50
2023-02-21T12:12:30.640Z,213.75
2023-02-21T12:13:30.642Z,112.50
2023-02-21T12:14:30.666Z,90.00
2023-02-21T12:15:30.764Z,84.38
2023-02-21T12:16:30.602Z,106.88
2023-02-21T12:17:30.624Z,123.75
2023-02-21T12:18:30.581Z,135.00
2023-02-21T12:19:30.608Z,95.62
2023-02-21T12:20:30.572Z,78.75
2023-02-21T12:21:30.567Z,73.12
2023-02-21T12:22:30.544Z,78.75
2023-02-21T12:23:30.524Z,123.75
2023-02-21T12:24:30.536Z,135.00
2023-02-21T12:25:30.510Z,90.00
2023-02-21T12:26:30.510Z,78.75
2023-02-21T12:27:30.496Z,78.75
2023-02-21T12:28:30.524Z,95.62
2023-02-21T12:29:30.475Z,112.50
2023-02-21T12:30:30.506Z,95.62
2023-02-21T12:31:30.534Z,95.62
2023-02-21T12:32:30.437Z,106.88
2023-02-21T12:33:30.427Z,106.88
2023-02-21T12:34:30.447Z,106.88
2023-02-21T12:35:30.424Z,106.88
2023-02-21T12:36:30.436Z,112.50
2023-02-21T12:37:30.385Z,123.75
2023-02-21T12:38:30.388Z,118.12
2023-02-21T12:39:30.372Z,123.75
2023-02-21T12:40:30.363Z,118.12
2023-02-21T12:41:30.338Z,112.50
2023-02-21T12:42:30.338Z,106.88
2023-02-21T12:43:30.318Z,118.12
2023-02-21T12:44:32.533Z,123.75
2023-02-21T12:45:30.328Z,112.50
2023-02-21T12:46:30.365Z,106.88
2023-02-21T12:47:30.286Z,95.62
2023-02-21T12:48:30.279Z,112.50
2023-02-21T12:49:30.291Z,123.75
2023-02-21T12:50:33.014Z,101.25
2023-02-21T12:51:30.243Z,84.38
2023-02-21T12:52:30.245Z,95.62
2023-02-21T12:53:30.219Z,90.00
2023-02-21T12:54:30.230Z,73.12
2023-02-21T12:55:30.217Z,67.50
2023-02-21T12:56:30.273Z,78.75
2023-02-21T12:57:30.194Z,73.12
2023-02-21T12:58:30.163Z,56.25
2023-02-21T12:59:30.173Z,50.62
2023-02-21T13:00:30.148Z,50.62